Belden, North Dakota
Current Conditions -  °F | °C
As of 4:15 PM on Thursday 18 Dec 2014 (Local Time) from K08D Reporting Station
Overcast Overcast  
Wind Chill: 16°   Ceiling: 600
Heat Index: 23°   Visibility: 10mi
Dew Point: 23°   Wind: 6mph
Humidity: 100%   Direction: 210°SSW
Pressure: 29.94"   Gusts: NA
Location:  48.3212°N, 102.393°W
Report Text: K08D 182215Z AUTO 21005KT 10SM OVC006 M05/M05 A2994 RMK AO2
Loading
Personal Weather Stations






























Interactive Weather Map New forecast layout! Learn more

10-Day Weather Forecast

Advertisements
Track Severe Weather on mobile